Time;durP1;ratioP1;P1;durP2;ratioP2;P2;SDS_P1;SDS_P2;PMS_P1;PMS_P2;Temp;Humidity;BMP_temperature;BMP_pressure;BME280_temperature;BME280_humidity;BME280_pressure;Samples;Min_cycle;Max_cycle;Signal;HPM_P1;HPM_P2
2022/09/02 00:02:16;;;;;;;3.17;2.90;;;20.10;42.90;;;;;;20559;6834;291157;-84
2022/09/02 00:04:43;;;;;;;2.78;2.58;;;20.10;43.50;;;;;;20534;6834;315564;-85
2022/09/02 00:07:08;;;;;;;2.90;2.70;;;20.10;42.80;;;;;;20756;6834;117853;-84
2022/09/02 00:09:36;;;;;;;3.00;2.80;;;19.30;44.00;;;;;;20751;6834;118665;-84
2022/09/02 00:12:00;;;;;;;3.00;2.80;;;19.40;44.10;;;;;;20535;6834;317474;-85
2022/09/02 00:14:29;;;;;;;2.50;2.40;;;19.40;44.10;;;;;;20752;6834;119205;-85
2022/09/02 00:16:55;;;;;;;2.60;2.50;;;19.20;44.30;;;;;;20532;6834;283018;-84
2022/09/02 00:19:22;;;;;;;3.00;2.60;;;19.30;44.30;;;;;;20753;6834;117997;-84
2022/09/02 00:21:47;;;;;;;2.83;2.63;;;19.20;44.50;;;;;;20530;6832;283182;-85
2022/09/02 00:24:13;;;;;;;2.90;2.70;;;19.20;44.10;;;;;;20749;6833;117609;-86
2022/09/02 00:26:38;;;;;;;2.90;2.70;;;19.10;44.40;;;;;;20524;6834;278768;-84
2022/09/02 00:29:04;;;;;;;2.80;2.60;;;19.20;44.20;;;;;;20545;6834;325613;-85
2022/09/02 00:31:32;;;;;;;2.90;2.70;;;19.60;43.80;;;;;;20547;6834;283640;-85
2022/09/02 00:33:56;;;;;;;2.90;2.70;;;19.60;43.50;;;;;;20534;6834;310596;-84
2022/09/02 00:36:21;;;;;;;2.80;2.60;;;19.70;43.60;;;;;;20757;6834;118613;-84
2022/09/02 00:38:47;;;;;;;3.00;2.80;;;19.50;44.10;;;;;;20732;6834;120236;-84
2022/09/02 00:41:12;;;;;;;2.90;2.80;;;19.10;44.60;;;;;;20545;6834;304391;-84
2022/09/02 00:43:55;;;;;;;2.97;2.80;;;19.00;45.00;;;;;;20756;6834;117248;-85
2022/09/02 00:46:21;;;;;;;3.30;3.03;;;19.00;45.00;;;;;;20752;6834;117279;-85
2022/09/02 00:48:47;;;;;;;2.90;2.80;;;18.70;45.40;;;;;;20525;6834;281462;-84
2022/09/02 00:51:12;;;;;;;3.30;3.03;;;18.80;45.40;;;;;;20519;6834;278948;-84
2022/09/02 00:53:38;;;;;;;3.00;2.90;;;19.30;44.90;;;;;;20548;6834;279082;-84
2022/09/02 00:56:04;;;;;;;2.87;2.77;;;19.30;44.90;;;;;;20750;6834;117621;-85
2022/09/02 00:58:30;;;;;;;3.58;3.37;;;19.10;45.30;;;;;;20745;6834;117260;-85
2022/09/02 01:00:56;;;;;;;2.83;2.70;;;18.70;45.80;;;;;;20742;6834;118678;-84
2022/09/02 01:03:21;;;;;;;3.20;3.10;;;18.50;46.50;;;;;;20535;6834;309549;-84
2022/09/02 01:05:46;;;;;;;2.95;2.80;;;18.60;46.60;;;;;;20746;6834;117772;-85
2022/09/02 01:08:15;;;;;;;3.15;2.83;;;18.60;46.70;;;;;;20752;6834;117170;-85
2022/09/02 01:10:41;;;;;;;2.53;2.43;;;18.30;46.80;;;;;;20719;6834;118433;-84
2022/09/02 01:13:07;;;;;;;3.00;2.80;;;18.10;47.30;;;;;;20742;6834;121552;-84
2022/09/02 01:15:36;;;;;;;2.87;2.77;;;18.00;47.60;;;;;;20530;6834;309361;-85
2022/09/02 01:18:00;;;;;;;3.00;2.80;;;18.20;47.10;;;;;;20754;6834;118484;-84
2022/09/02 01:20:26;;;;;;;2.83;2.70;;;18.20;47.10;;;;;;20746;6834;119212;-84
2022/09/02 01:22:52;;;;;;;3.37;3.17;;;18.00;47.30;;;;;;20730;6834;118406;-84
2022/09/02 01:25:18;;;;;;;3.20;3.00;;;17.90;47.70;;;;;;20540;6834;278555;-84
2022/09/02 01:27:43;;;;;;;2.73;2.63;;;18.10;47.10;;;;;;20714;6834;117340;-84
2022/09/02 01:30:08;;;;;;;3.08;2.87;;;18.10;47.10;;;;;;20757;6834;117290;-84
2022/09/02 01:32:36;;;;;;;3.28;3.00;;;18.10;47.00;;;;;;20532;6832;294830;-85
2022/09/02 01:35:02;;;;;;;3.17;2.97;;;18.10;47.00;;;;;;20757;6833;117434;-84
2022/09/02 01:37:27;;;;;;;3.43;3.00;;;18.10;47.10;;;;;;20758;6834;117083;-84
2022/09/02 01:39:56;;;;;;;3.67;2.83;;;17.70;47.80;;;;;;20759;6834;117137;-84
2022/09/02 01:42:19;;;;;;;4.87;2.90;;;17.70;47.70;;;;;;20746;6834;117205;-85
2022/09/02 01:44:46;;;;;;;2.97;2.87;;;17.40;48.20;;;;;;20726;6834;119113;-84
2022/09/02 01:47:11;;;;;;;2.83;2.73;;;17.40;48.20;;;;;;20752;6834;117989;-84
2022/09/02 01:49:38;;;;;;;3.08;2.87;;;17.20;48.50;;;;;;20728;6834;117381;-84
2022/09/02 01:52:03;;;;;;;3.23;3.03;;;17.20;48.50;;;;;;20748;6834;117355;-84
2022/09/02 01:54:28;;;;;;;3.30;3.20;;;17.10;48.70;;;;;;20537;6834;329559;-84
2022/09/02 01:56:54;;;;;;;3.53;3.33;;;17.40;48.70;;;;;;20724;6834;118039;-84
2022/09/02 01:59:20;;;;;;;3.67;3.47;;;17.50;48.40;;;;;;20542;6834;278686;-84
2022/09/02 02:01:45;;;;;;;3.22;3.03;;;17.70;48.10;;;;;;20537;6834;339975;-84
2022/09/02 02:04:11;;;;;;;3.03;2.93;;;18.00;47.50;;;;;;20749;6834;117189;-84
2022/09/02 02:06:40;;;;;;;3.40;3.20;;;18.00;47.70;;;;;;20518;6834;308241;-84
2022/09/02 02:09:05;;;;;;;3.43;2.83;;;18.10;47.30;;;;;;20741;6834;118496;-84
2022/09/02 02:11:30;;;;;;;2.80;2.70;;;18.00;47.30;;;;;;20760;6834;117276;-84
2022/09/02 02:13:56;;;;;;;2.75;2.55;;;17.70;47.50;;;;;;20750;6834;117271;-84
2022/09/02 02:16:22;;;;;;;2.80;2.60;;;17.70;46.90;;;;;;20549;6834;278955;-90
2022/09/02 02:18:48;;;;;;;2.80;2.60;;;17.70;46.90;;;;;;20523;6834;279022;-84
2022/09/02 02:21:13;;;;;;;2.70;2.60;;;18.00;46.30;;;;;;20548;6834;282516;-84
2022/09/02 02:23:39;;;;;;;2.67;2.58;;;18.30;45.80;;;;;;20754;6834;117691;-85
2022/09/02 02:26:04;;;;;;;2.62;2.53;;;18.10;46.00;;;;;;20541;6834;321101;-84
2022/09/02 02:28:30;;;;;;;2.33;2.23;;;18.20;45.70;;;;;;20757;6834;117521;-84
2022/09/02 02:30:56;;;;;;;2.80;2.60;;;18.10;46.00;;;;;;20364;6834;308226;-85
2022/09/02 02:33:22;;;;;;;2.60;2.50;;;18.10;45.60;;;;;;20548;6834;286308;-84
2022/09/02 02:35:47;;;;;;;2.80;2.60;;;18.30;45.40;;;;;;20537;6834;308153;-84
2022/09/02 02:38:13;;;;;;;2.40;2.30;;;18.30;44.90;;;;;;20759;6834;117265;-83
2022/09/02 02:40:39;;;;;;;2.53;2.43;;;18.20;45.30;;;;;;20525;6834;310602;-85
2022/09/02 02:43:04;;;;;;;2.60;2.50;;;18.30;45.00;;;;;;20533;6834;311739;-85
2022/09/02 02:45:30;;;;;;;2.60;2.40;;;18.40;44.70;;;;;;20546;6832;309128;-84
2022/09/02 02:47:57;;;;;;;2.10;2.00;;;18.30;45.00;;;;;;20748;6833;117201;-84
2022/09/02 02:50:22;;;;;;;2.08;1.98;;;18.30;44.30;;;;;;20513;6834;338543;-84
2022/09/02 02:52:47;;;;;;;2.83;2.23;;;18.30;44.00;;;;;;20482;6834;280497;-84
2022/09/02 02:55:14;;;;;;;2.00;1.90;;;18.50;43.70;;;;;;20746;6834;118057;-85
2022/09/02 02:57:40;;;;;;;2.37;2.00;;;18.30;44.10;;;;;;20727;6834;118926;-84
2022/09/02 03:00:09;;;;;;;2.20;2.00;;;17.90;44.60;;;;;;20707;6834;118718;-85
2022/09/02 03:02:35;;;;;;;2.12;2.00;;;17.70;45.90;;;;;;20511;6834;339793;-85
2022/09/02 03:05:00;;;;;;;2.40;2.30;;;17.80;44.90;;;;;;20531;6834;328641;-84
2022/09/02 03:07:25;;;;;;;2.30;2.20;;;18.10;44.70;;;;;;20732;6834;118103;-85
2022/09/02 03:09:51;;;;;;;2.90;2.53;;;18.00;45.00;;;;;;20536;6834;310235;-85
2022/09/02 03:12:17;;;;;;;2.50;2.30;;;18.00;45.00;;;;;;20759;6834;117225;-84
2022/09/02 03:14:43;;;;;;;2.50;2.40;;;17.90;45.40;;;;;;20742;6834;121285;-87
2022/09/02 03:17:08;;;;;;;2.40;2.20;;;17.70;46.00;;;;;;20752;6834;117423;-87
2022/09/02 03:19:33;;;;;;;3.10;2.90;;;17.40;46.40;;;;;;20766;6834;117532;-86
2022/09/02 03:22:00;;;;;;;2.60;2.50;;;17.20;46.90;;;;;;20761;6834;118250;-86
2022/09/02 03:24:25;;;;;;;2.93;2.80;;;17.00;47.30;;;;;;20756;6834;120471;-86
2022/09/02 03:26:51;;;;;;;2.70;2.60;;;16.90;47.60;;;;;;20524;6834;308571;-86
2022/09/02 03:29:17;;;;;;;3.00;2.80;;;17.20;47.50;;;;;;20546;6834;283562;-86
2022/09/02 03:31:42;;;;;;;2.97;2.77;;;17.50;47.10;;;;;;20549;6834;278893;-86
2022/09/02 03:34:08;;;;;;;2.65;2.00;;;17.80;46.40;;;;;;20754;6834;119695;-86
2022/09/02 03:36:33;;;;;;;2.30;2.10;;;17.70;46.30;;;;;;20519;6834;307684;-85
2022/09/02 03:38:59;;;;;;;3.03;2.30;;;17.70;44.90;;;;;;20748;6834;118696;-85
2022/09/02 03:41:24;;;;;;;2.17;1.90;;;17.60;45.30;;;;;;20535;6834;308663;-85
2022/09/02 03:43:50;;;;;;;2.10;2.00;;;17.80;45.00;;;;;;20753;6834;117225;-85
2022/09/02 03:46:16;;;;;;;2.40;2.20;;;17.70;45.50;;;;;;20548;6834;278650;-85
2022/09/02 03:48:41;;;;;;;2.40;2.20;;;17.80;44.70;;;;;;20727;6834;117807;-86
2022/09/02 03:51:07;;;;;;;2.47;2.28;;;17.70;45.00;;;;;;20522;6834;295106;-85
2022/09/02 03:53:32;;;;;;;2.03;1.92;;;17.80;44.90;;;;;;20538;6834;338016;-85
2022/09/02 03:55:58;;;;;;;2.37;2.20;;;18.00;44.10;;;;;;20541;6832;283043;-85
2022/09/02 03:58:23;;;;;;;2.55;2.17;;;18.20;44.30;;;;;;20728;6833;117402;-86
2022/09/02 04:00:49;;;;;;;2.10;2.00;;;18.00;44.50;;;;;;20522;6834;283190;-86
2022/09/02 04:03:15;;;;;;;2.07;1.97;;;18.10;44.20;;;;;;20755;6834;117905;-86
2022/09/02 04:05:40;;;;;;;2.00;1.90;;;17.90;44.40;;;;;;20583;6834;306359;-86
2022/09/02 04:08:06;;;;;;;2.20;2.03;;;17.90;44.20;;;;;;20818;6834;117681;-86
2022/09/02 04:10:31;;;;;;;2.97;2.20;;;17.80;44.50;;;;;;20816;6834;117663;-88
2022/09/02 04:12:58;;;;;;;2.08;1.98;;;17.50;45.10;;;;;;20562;6834;278945;-85
2022/09/02 04:15:24;;;;;;;2.40;2.20;;;17.70;45.30;;;;;;20771;6834;117244;-86
2022/09/02 04:17:49;;;;;;;2.65;2.37;;;17.60;45.30;;;;;;20552;6834;308954;-85
2022/09/02 04:20:15;;;;;;;2.50;2.10;;;17.70;45.10;;;;;;20770;6834;121028;-86
2022/09/02 04:22:40;;;;;;;2.60;2.40;;;17.60;45.30;;;;;;20531;6834;338601;-86
2022/09/02 04:25:06;;;;;;;2.45;2.20;;;17.70;45.30;;;;;;20573;6834;308053;-86
2022/09/02 04:27:31;;;;;;;2.50;2.30;;;17.90;45.00;;;;;;20562;6834;288465;-86
2022/09/02 04:29:58;;;;;;;2.78;2.33;;;18.10;44.60;;;;;;20808;6834;116551;-85
2022/09/02 04:32:24;;;;;;;2.20;2.10;;;17.90;44.90;;;;;;20790;6834;116256;-85
2022/09/02 04:34:48;;;;;;;2.83;2.63;;;17.60;45.50;;;;;;20532;6834;300866;-85
2022/09/02 04:37:15;;;;;;;2.50;2.30;;;17.60;45.70;;;;;;20781;6834;117476;-85
2022/09/02 04:39:41;;;;;;;3.08;2.67;;;17.60;46.10;;;;;;20559;6834;279437;-86
2022/09/02 04:42:07;;;;;;;2.77;2.57;;;17.60;46.10;;;;;;20759;6834;117958;-86
2022/09/02 04:44:32;;;;;;;4.93;2.47;;;17.50;46.40;;;;;;20719;6834;117861;-86
2022/09/02 04:46:58;;;;;;;3.10;2.67;;;17.10;46.80;;;;;;20558;6834;283348;-86
2022/09/02 04:49:26;;;;;;;3.00;2.80;;;17.20;46.80;;;;;;20763;6834;117877;-85
2022/09/02 04:51:56;;;;;;;3.50;2.83;;;17.10;46.90;;;;;;20837;6834;68470;-86
2022/09/02 04:54:24;;;;;;;3.23;2.97;;;16.90;47.40;;;;;;20880;6834;116552;-85
2022/09/02 04:56:51;;;;;;;2.40;2.30;;;16.60;47.70;;;;;;20851;6834;116424;-87
2022/09/02 04:59:20;;;;;;;2.70;2.50;;;16.40;48.20;;;;;;20892;6834;116205;-87
2022/09/02 05:01:48;;;;;;;2.33;2.20;;;16.30;48.40;;;;;;20883;6834;117566;-85
2022/09/02 05:04:14;;;;;;;2.73;2.50;;;16.20;48.70;;;;;;20868;6834;68321;-86
2022/09/02 05:06:42;;;;;;;2.80;2.50;;;16.50;48.60;;;;;;20615;6834;309296;-86
2022/09/02 05:09:07;;;;;;;2.60;2.50;;;16.40;48.40;;;;;;20916;6832;67389;-85
2022/09/02 05:11:37;;;;;;;2.60;2.40;;;16.60;48.30;;;;;;20808;6833;68562;-85
2022/09/02 05:14:02;;;;;;;2.62;2.42;;;16.50;48.40;;;;;;20587;6834;309039;-88
2022/09/02 05:16:30;;;;;;;2.33;2.23;;;16.80;48.20;;;;;;20798;6834;117625;-85
2022/09/02 05:18:57;;;;;;;2.90;2.60;;;16.80;48.70;;;;;;20597;6834;280100;-86
2022/09/02 05:21:23;;;;;;;2.70;2.50;;;17.10;47.90;;;;;;20736;6834;69158;-85
2022/09/02 05:23:49;;;;;;;2.20;2.10;;;17.10;47.90;;;;;;20752;6834;117531;-85
2022/09/02 05:26:15;;;;;;;2.73;2.53;;;16.80;48.40;;;;;;20750;6834;117476;-85
2022/09/02 05:28:42;;;;;;;2.70;2.50;;;16.70;48.90;;;;;;20734;6834;117533;-85
2022/09/02 05:31:06;;;;;;;2.77;2.67;;;16.60;48.50;;;;;;20752;6834;117530;-85
2022/09/02 05:33:32;;;;;;;2.80;2.70;;;16.60;48.80;;;;;;20531;6834;308101;-85
2022/09/02 05:35:57;;;;;;;2.78;2.58;;;16.80;48.60;;;;;;20540;6834;308134;-85
2022/09/02 05:38:24;;;;;;;2.42;2.33;;;17.30;48.00;;;;;;20752;6834;117686;-85
2022/09/02 05:40:49;;;;;;;2.60;2.40;;;17.10;48.10;;;;;;20717;6834;117490;-86
2022/09/02 05:43:15;;;;;;;2.90;2.70;;;17.10;48.10;;;;;;20541;6834;337635;-85
2022/09/02 05:45:40;;;;;;;2.70;2.60;;;17.30;47.80;;;;;;20538;6834;308081;-86
2022/09/02 05:49:04;;;;;;;2.80;2.60;;;17.60;47.30;;;;;;20542;6834;279428;-86
2022/09/02 05:50:33;;;;;;;2.87;2.63;;;18.10;46.30;;;;;;20465;6834;308113;-86
2022/09/02 05:52:58;;;;;;;2.70;2.50;;;18.30;46.70;;;;;;20550;6834;338121;-86
2022/09/02 05:55:24;;;;;;;2.50;2.40;;;18.20;46.00;;;;;;20543;6834;303275;-86
2022/09/02 05:57:50;;;;;;;3.05;2.85;;;18.40;45.80;;;;;;20763;6834;117214;-86
2022/09/02 06:00:15;;;;;;;3.20;2.90;;;18.20;46.20;;;;;;20768;6834;118211;-86
2022/09/02 06:02:41;;;;;;;3.63;3.33;;;17.90;46.80;;;;;;20522;6834;301499;-86
2022/09/02 06:05:10;;;;;;;3.00;2.70;;;18.00;47.00;;;;;;20534;6834;307835;-85
2022/09/02 06:07:32;;;;;;;2.70;2.50;;;18.20;46.50;;;;;;20719;6834;117697;-86
2022/09/02 06:09:58;;;;;;;4.93;2.40;;;18.10;46.70;;;;;;20744;6834;117302;-85
2022/09/02 06:12:23;;;;;;;2.50;2.40;;;17.90;47.20;;;;;;20541;6834;282715;-86
2022/09/02 06:14:49;;;;;;;2.95;2.65;;;18.40;47.30;;;;;;20513;6834;312300;-85
2022/09/02 06:17:15;;;;;;;2.80;2.60;;;18.30;46.80;;;;;;20748;6834;117707;-86
2022/09/02 06:19:41;;;;;;;3.93;2.60;;;18.50;47.30;;;;;;20756;6832;117981;-86
2022/09/02 06:22:06;;;;;;;2.80;2.60;;;18.50;47.70;;;;;;20752;6833;117495;-86
2022/09/02 06:24:32;;;;;;;2.80;2.60;;;18.50;48.10;;;;;;20734;6834;117673;-86
2022/09/02 06:26:58;;;;;;;2.60;2.50;;;18.60;48.30;;;;;;20756;6834;117440;-86
2022/09/02 06:29:23;;;;;;;2.90;2.70;;;18.70;48.50;;;;;;20538;6834;296387;-86
2022/09/02 06:31:48;;;;;;;4.57;2.60;;;19.00;46.60;;;;;;20749;6834;117342;-86
2022/09/02 06:34:15;;;;;;;2.97;2.70;;;19.20;46.80;;;;;;20751;6834;117664;-86
2022/09/02 06:36:39;;;;;;;2.80;2.53;;;19.20;47.00;;;;;;20525;6834;308919;-86
2022/09/02 06:39:06;;;;;;;2.53;2.33;;;19.50;45.80;;;;;;20749;6834;123461;-86
2022/09/02 06:41:32;;;;;;;2.60;2.40;;;19.50;45.80;;;;;;20543;6834;308942;-85
2022/09/02 06:43:57;;;;;;;2.65;2.45;;;19.60;45.00;;;;;;20534;6834;307704;-85
2022/09/02 06:46:26;;;;;;;2.40;2.20;;;19.90;44.80;;;;;;20761;6834;117310;-86
2022/09/02 06:48:51;;;;;;;3.60;2.60;;;19.80;45.00;;;;;;20565;6834;278568;-86
2022/09/02 06:51:27;;;;;;;2.90;2.70;;;19.90;44.30;;;;;;20579;6834;307761;-86
2022/09/02 06:53:52;;;;;;;2.87;2.60;;;20.20;44.10;;;;;;20560;6834;308580;-86
2022/09/02 06:56:18;;;;;;;2.37;2.28;;;20.50;43.70;;;;;;20766;6834;117225;-86
2022/09/02 06:58:43;;;;;;;2.67;2.47;;;20.40;44.10;;;;;;20537;6834;282912;-85
2022/09/02 07:01:12;;;;;;;2.57;2.47;;;20.50;43.90;;;;;;20778;6834;117069;-85
2022/09/02 07:06:21;;;;;;;3.15;2.90;;;20.30;44.80;;;;;;20541;6834;308087;-86
2022/09/02 07:08:47;;;;;;;3.10;2.70;;;20.60;43.90;;;;;;20526;6834;278774;-85
2022/09/02 07:11:15;;;;;;;2.95;2.65;;;21.00;43.30;;;;;;20543;6834;337303;-85
2022/09/02 07:13:41;;;;;;;2.30;2.20;;;21.30;42.70;;;;;;20743;6834;121164;-84
2022/09/02 07:16:06;;;;;;;3.10;2.85;;;21.30;43.40;;;;;;20762;6834;116683;-85
2022/09/02 07:18:32;;;;;;;4.50;2.78;;;21.10;43.70;;;;;;20757;6834;143788;-85
2022/09/02 07:20:58;;;;;;;5.17;3.97;;;20.90;44.20;;;;;;20766;6834;116741;-84
2022/09/02 07:23:25;;;;;;;5.07;3.53;;;21.20;43.80;;;;;;20572;6834;308536;-84
2022/09/02 07:25:50;;;;;;;4.20;2.70;;;21.20;43.40;;;;;;20788;6834;117723;-84
2022/09/02 07:28:16;;;;;;;2.93;2.70;;;21.30;43.70;;;;;;20746;6834;116809;-84
2022/09/02 07:30:41;;;;;;;5.50;3.43;;;21.30;43.70;;;;;;20742;6832;123080;-85
2022/09/02 07:33:07;;;;;;;2.67;2.37;;;21.20;43.90;;;;;;20765;6833;120646;-84
2022/09/02 07:35:32;;;;;;;3.73;3.33;;;21.30;44.20;;;;;;20758;6834;117143;-84
2022/09/02 07:37:58;;;;;;;3.70;3.40;;;21.30;44.10;;;;;;20542;6834;308054;-87
2022/09/02 07:40:24;;;;;;;3.10;2.80;;;21.70;42.70;;;;;;20531;6834;329508;-84
2022/09/02 07:42:49;;;;;;;2.87;2.67;;;22.20;41.90;;;;;;20537;6834;278534;-86
2022/09/02 07:45:15;;;;;;;2.77;2.57;;;22.70;41.60;;;;;;20767;6834;117432;-86
2022/09/02 07:47:40;;;;;;;4.28;2.40;;;22.70;41.90;;;;;;20556;6834;281408;-86
2022/09/02 07:50:06;;;;;;;3.37;2.47;;;22.80;41.20;;;;;;20755;6834;120909;-87
2022/09/02 07:52:31;;;;;;;3.33;2.30;;;22.80;41.70;;;;;;20749;6834;117708;-86
2022/09/02 07:54:58;;;;;;;4.07;2.50;;;23.00;41.10;;;;;;20541;6834;307962;-86
2022/09/02 07:57:23;;;;;;;2.30;2.20;;;22.90;41.00;;;;;;20543;6834;278239;-87
2022/09/02 07:59:49;;;;;;;3.37;2.20;;;23.40;40.70;;;;;;20769;6834;120983;-86
2022/09/02 08:02:17;;;;;;;3.03;2.30;;;23.50;41.00;;;;;;20769;6834;116756;-86
2022/09/02 08:04:42;;;;;;;2.23;1.90;;;23.40;41.60;;;;;;20755;6834;117885;-86
2022/09/02 08:07:07;;;;;;;3.83;2.27;;;23.40;41.50;;;;;;20761;6834;117863;-89
2022/09/02 08:09:34;;;;;;;2.47;2.30;;;23.30;41.50;;;;;;20553;6834;308131;-87
2022/09/02 08:11:59;;;;;;;2.72;2.53;;;23.70;40.70;;;;;;20548;6834;308592;-87
2022/09/02 08:14:26;;;;;;;2.90;2.70;;;24.20;39.90;;;;;;20545;6834;279042;-88
2022/09/02 08:16:51;;;;;;;2.90;2.33;;;24.50;38.20;;;;;;20728;6834;117772;-87
2022/09/02 08:19:16;;;;;;;4.07;2.60;;;24.50;38.90;;;;;;20539;6834;279706;-87
2022/09/02 08:21:43;;;;;;;2.65;2.50;;;24.80;38.60;;;;;;20552;6834;279146;-87
2022/09/02 08:24:09;;;;;;;2.17;2.07;;;24.80;38.60;;;;;;20741;6834;117495;-87
2022/09/02 08:26:36;;;;;;;2.40;2.30;;;24.70;39.10;;;;;;20739;6834;120979;-90
2022/09/02 08:29:01;;;;;;;2.60;2.40;;;24.50;39.60;;;;;;20542;6834;279347;-87
2022/09/02 08:31:26;;;;;;;2.37;2.22;;;24.60;38.50;;;;;;20551;6834;309335;-86
2022/09/02 08:33:53;;;;;;;2.60;2.40;;;25.00;38.00;;;;;;20549;6834;287263;-86
2022/09/02 08:36:20;;;;;;;2.50;2.30;;;25.30;39.40;;;;;;20553;6834;278047;-84
2022/09/02 08:38:46;;;;;;;2.20;2.10;;;25.60;37.10;;;;;;20739;6834;117737;-85
2022/09/02 08:41:11;;;;;;;2.50;2.30;;;25.60;37.70;;;;;;20543;6834;338254;-85
2022/09/02 08:43:40;;;;;;;2.40;2.30;;;25.70;37.10;;;;;;20729;6832;117134;-85
2022/09/02 08:46:07;;;;;;;3.13;2.10;;;25.60;37.80;;;;;;20745;6833;118054;-85
2022/09/02 08:48:48;;;;;;;2.00;1.90;;;25.30;38.30;;;;;;20750;6834;117717;-84
2022/09/02 08:51:39;;;;;;;3.43;2.27;;;25.20;38.70;;;;;;20118;6834;117254;-85
2022/09/02 08:54:08;;;;;;;2.00;1.80;;;25.00;39.00;;;;;;20745;6834;117689;-85
2022/09/02 08:56:35;;;;;;;2.00;1.90;;;25.00;39.50;;;;;;20518;6834;311850;-86
2022/09/02 08:59:02;;;;;;;2.13;1.93;;;25.80;36.60;;;;;;20548;6834;279489;-89
2022/09/02 09:01:27;;;;;;;2.17;2.00;;;25.80;36.60;;;;;;20539;6834;279000;-87
2022/09/02 09:04:12;;;;;;;2.10;1.80;;;26.10;36.30;;;;;;20757;6834;117119;-85
2022/09/02 09:06:37;;;;;;;1.93;1.83;;;26.00;36.60;;;;;;20520;6834;282346;-88
2022/09/02 09:09:03;;;;;;;2.17;2.07;;;26.10;36.40;;;;;;20729;6834;118105;-87
2022/09/02 09:11:32;;;;;;;2.03;1.83;;;26.10;36.30;;;;;;20530;6834;309461;-87
2022/09/02 09:14:01;;;;;;;2.57;1.77;;;26.20;34.80;;;;;;20515;6834;308819;-87
2022/09/02 09:16:37;;;;;;;1.40;1.30;;;26.50;35.70;;;;;;20512;6834;306520;-87
2022/09/02 09:19:15;;;;;;;2.83;1.40;;;26.70;32.00;;;;;;20530;6834;303764;-88
2022/09/02 09:21:41;;;;;;;1.27;1.27;;;26.90;31.30;;;;;;20743;6834;117632;-87
2022/09/02 09:24:07;;;;;;;1.52;1.37;;;26.70;31.70;;;;;;20539;6834;280801;-87
2022/09/02 09:26:33;;;;;;;1.70;1.30;;;26.80;31.60;;;;;;20496;6834;308032;-87
2022/09/02 09:28:58;;;;;;;1.50;1.40;;;26.90;31.00;;;;;;20536;6834;278790;-87
2022/09/02 09:31:28;;;;;;;1.42;1.33;;;27.00;30.00;;;;;;20532;6834;279289;-88
2022/09/02 09:33:54;;;;;;;1.10;1.10;;;27.10;30.00;;;;;;20753;6834;117475;-89
2022/09/02 09:36:20;;;;;;;1.30;1.20;;;26.70;31.50;;;;;;20727;6834;117199;-88
2022/09/02 09:38:46;;;;;;;1.20;1.20;;;26.70;31.40;;;;;;20648;6834;121849;-87
2022/09/02 09:41:20;;;;;;;1.50;1.40;;;26.50;32.00;;;;;;20531;6834;293830;-89
2022/09/02 09:43:44;;;;;;;1.03;1.03;;;26.60;31.10;;;;;;20741;6834;117727;-89
2022/09/02 09:46:27;;;;;;;1.60;1.48;;;26.70;31.90;;;;;;20539;6834;284810;-87
2022/09/02 09:48:53;;;;;;;1.77;1.50;;;26.80;31.10;;;;;;20526;6834;313519;-89
2022/09/02 09:51:19;;;;;;;1.67;1.47;;;27.20;30.40;;;;;;20756;6834;117496;-88
2022/09/02 09:53:44;;;;;;;1.87;1.45;;;27.20;30.90;;;;;;20536;6832;308948;-88
2022/09/02 09:56:13;;;;;;;1.50;1.47;;;27.30;30.10;;;;;;20760;6833;116519;-88
2022/09/02 09:58:38;;;;;;;1.52;1.42;;;27.20;30.70;;;;;;20498;6834;308077;-88
2022/09/02 10:01:27;;;;;;;1.47;1.37;;;27.20;30.70;;;;;;20767;6834;117775;-89
2022/09/02 10:03:52;;;;;;;1.60;1.60;;;27.20;31.10;;;;;;20525;6834;307534;-89
2022/09/02 10:06:29;;;;;;;1.50;1.40;;;27.20;30.40;;;;;;20541;6834;278905;-90
2022/09/02 10:08:58;;;;;;;1.50;1.40;;;27.60;29.20;;;;;;20521;6834;309382;-87
2022/09/02 10:11:24;;;;;;;3.03;1.70;;;27.80;29.80;;;;;;20504;6834;311339;-88
2022/09/02 10:13:51;;;;;;;5.37;1.80;;;27.70;29.70;;;;;;20527;6834;305899;-89
2022/09/02 10:16:41;;;;;;;1.40;1.30;;;27.90;29.70;;;;;;20572;6834;311423;-88
2022/09/02 10:19:28;;;;;;;1.60;1.50;;;28.00;29.60;;;;;;20813;6834;116492;-89
2022/09/02 10:22:20;;;;;;;1.60;1.50;;;27.70;30.00;;;;;;20594;6834;307760;-88
2022/09/02 10:25:02;;;;;;;1.50;1.50;;;27.70;29.90;;;;;;20780;6834;116879;-88
2022/09/02 10:27:54;;;;;;;2.27;1.40;;;27.50;30.10;;;;;;20825;6834;67106;-90
2022/09/02 10:30:20;;;;;;;1.70;1.60;;;27.30;30.60;;;;;;20605;6834;335788;-93
2022/09/02 10:33:15;;;;;;;1.53;1.40;;;27.40;29.50;;;;;;20822;6834;116275;-89
2022/09/02 10:35:44;;;;;;;1.60;1.50;;;27.40;30.10;;;;;;20818;6834;116258;-87
2022/09/02 10:38:39;;;;;;;2.00;1.60;;;27.20;31.00;;;;;;20584;6834;311427;-87
2022/09/02 10:41:24;;;;;;;3.43;1.77;;;27.40;29.80;;;;;;20817;6834;116490;-87
2022/09/02 10:44:16;;;;;;;1.87;1.33;;;27.30;30.30;;;;;;20842;6834;66859;-87
2022/09/02 10:47:00;;;;;;;2.10;1.47;;;27.00;31.50;;;;;;20743;6834;120904;-86
2022/09/02 10:49:34;;;;;;;2.00;1.50;;;27.00;31.40;;;;;;20540;6834;282750;-86
2022/09/02 10:52:04;;;;;;;1.55;1.55;;;27.20;30.60;;;;;;20533;6834;337271;-86
2022/09/02 10:54:49;;;;;;;1.47;1.40;;;27.50;30.00;;;;;;20744;6834;117307;-86
2022/09/02 10:57:24;;;;;;;2.07;1.40;;;27.50;30.50;;;;;;20720;6834;117955;-86
2022/09/02 10:59:56;;;;;;;1.50;1.40;;;27.40;31.40;;;;;;20732;6834;120983;-86
2022/09/02 11:02:32;;;;;;;1.57;1.47;;;27.20;31.60;;;;;;20744;6834;120307;-86
2022/09/02 11:04:58;;;;;;;1.60;1.50;;;27.20;30.90;;;;;;20538;6834;308588;-86
2022/09/02 11:07:23;;;;;;;1.50;1.40;;;27.20;30.20;;;;;;20528;6832;308028;-86
2022/09/02 11:09:57;;;;;;;2.90;1.85;;;27.50;30.80;;;;;;20540;6834;293599;-87
2022/09/02 11:12:29;;;;;;;2.07;1.60;;;27.80;30.20;;;;;;20528;6834;308928;-87
2022/09/02 11:15:18;;;;;;;2.13;1.80;;;27.90;30.10;;;;;;20703;6834;127417;-87
2022/09/02 11:17:49;;;;;;;1.62;1.52;;;27.80;30.90;;;;;;20540;6834;283898;-87
2022/09/02 11:20:15;;;;;;;1.77;1.67;;;27.80;31.20;;;;;;20227;6834;314621;-86
2022/09/02 11:22:44;;;;;;;2.10;1.93;;;27.90;30.50;;;;;;20706;6834;121203;-86
2022/09/02 11:25:17;;;;;;;2.20;1.70;;;27.70;31.60;;;;;;20727;6834;117366;-87
2022/09/02 11:27:42;;;;;;;1.80;1.70;;;27.60;32.00;;;;;;20130;6834;118902;-86
2022/09/02 11:30:13;;;;;;;3.00;1.65;;;27.40;31.70;;;;;;20748;6834;118067;-86
2022/09/02 11:32:53;;;;;;;1.70;1.60;;;27.30;32.30;;;;;;20737;6834;117377;-86
2022/09/02 11:35:20;;;;;;;2.00;1.90;;;27.10;32.70;;;;;;20523;6834;337994;-87
2022/09/02 11:37:49;;;;;;;1.90;1.80;;;27.30;31.50;;;;;;20726;6834;117656;-86
2022/09/02 11:40:17;;;;;;;1.80;1.80;;;27.30;31.90;;;;;;20747;6834;117605;-86
2022/09/02 11:43:01;;;;;;;1.60;1.60;;;27.10;31.80;;;;;;20711;6834;118093;-86
2022/09/02 11:45:45;;;;;;;1.73;1.63;;;26.90;31.90;;;;;;20533;6834;278114;-86
2022/09/02 11:48:14;;;;;;;1.85;1.73;;;27.00;32.10;;;;;;20541;6834;294617;-85
2022/09/02 11:51:13;;;;;;;1.90;1.80;;;27.40;32.00;;;;;;20704;6834;117742;-87
2022/09/02 11:53:39;;;;;;;2.50;1.80;;;27.40;32.70;;;;;;20751;6834;117249;-86
2022/09/02 11:56:10;;;;;;;1.87;1.80;;;27.20;32.70;;;;;;20749;6834;118198;-86
2022/09/02 11:58:39;;;;;;;1.80;1.70;;;27.10;32.50;;;;;;20405;6834;310839;-86
2022/09/02 12:01:15;;;;;;;1.83;1.73;;;27.20;31.80;;;;;;20545;6834;281778;-86
2022/09/02 12:03:51;;;;;;;2.00;1.90;;;27.40;31.60;;;;;;20526;6834;307774;-86
2022/09/02 12:06:18;;;;;;;2.37;2.17;;;27.60;32.00;;;;;;20746;6834;117375;-86
2022/09/02 12:08:43;;;;;;;1.87;1.77;;;27.50;31.90;;;;;;20725;6834;117589;-86
2022/09/02 12:11:08;;;;;;;1.87;1.62;;;27.40;32.10;;;;;;20788;6834;66768;-87
2022/09/02 12:13:47;;;;;;;1.95;1.65;;;27.10;32.50;;;;;;20760;6834;117037;-86
2022/09/02 12:16:15;;;;;;;1.87;1.77;;;27.00;32.40;;;;;;20738;6834;117125;-87
2022/09/02 12:18:41;;;;;;;2.10;1.90;;;26.90;32.50;;;;;;20534;6832;308532;-87
2022/09/02 12:21:14;;;;;;;2.20;1.90;;;26.90;32.00;;;;;;20539;6833;300911;-86
2022/09/02 12:23:54;;;;;;;1.90;1.80;;;27.20;31.50;;;;;;20538;6834;317048;-87
2022/09/02 12:26:23;;;;;;;1.70;1.60;;;27.40;31.60;;;;;;20761;6834;117154;-87
2022/09/02 12:28:49;;;;;;;1.90;1.80;;;27.30;32.30;;;;;;20122;6834;278527;-87
2022/09/02 12:31:41;;;;;;;1.75;1.65;;;27.40;31.60;;;;;;20532;6834;308158;-87
2022/09/02 12:34:20;;;;;;;1.80;1.80;;;27.50;30.80;;;;;;20739;6834;117142;-87
2022/09/02 12:36:55;;;;;;;1.70;1.60;;;27.40;31.40;;;;;;20519;6834;322293;-87
2022/09/02 12:39:24;;;;;;;1.93;1.60;;;27.40;29.90;;;;;;20733;6834;117928;-87
2022/09/02 12:42:03;;;;;;;1.97;1.87;;;27.40;30.90;;;;;;20752;6834;117644;-87
2022/09/02 12:44:50;;;;;;;2.70;1.70;;;27.30;31.40;;;;;;20549;6834;278929;-89
2022/09/02 12:47:24;;;;;;;1.67;1.53;;;27.30;31.40;;;;;;20543;6834;279447;-88